sensor_id;sensor_type;location;lat;lon;timestamp;pressure;altitude;pressure_sealevel;temperature;humidity
11682;BME280;5897;42.640;23.310;2023-11-22T00:01:18;93203.75;;;8.14;99.05
11682;BME280;5897;42.640;23.310;2023-11-22T00:03:45;93200.59;;;8.15;100.00
11682;BME280;5897;42.640;23.310;2023-11-22T00:06:11;93193.53;;;8.21;100.00
11682;BME280;5897;42.640;23.310;2023-11-22T00:08:38;93194.84;;;8.29;99.41
11682;BME280;5897;42.640;23.310;2023-11-22T00:11:05;93180.66;;;8.41;99.16
11682;BME280;5897;42.640;23.310;2023-11-22T00:13:33;93186.69;;;8.45;99.32
11682;BME280;5897;42.640;23.310;2023-11-22T00:16:00;93169.22;;;8.37;99.40
11682;BME280;5897;42.640;23.310;2023-11-22T00:18:27;93184.75;;;8.46;99.68
11682;BME280;5897;42.640;23.310;2023-11-22T00:20:54;93179.47;;;8.42;98.81
11682;BME280;5897;42.640;23.310;2023-11-22T00:23:23;93188.94;;;8.59;98.25
11682;BME280;5897;42.640;23.310;2023-11-22T00:25:52;93184.22;;;8.51;98.80
11682;BME280;5897;42.640;23.310;2023-11-22T00:28:19;93186.78;;;8.54;99.24
11682;BME280;5897;42.640;23.310;2023-11-22T00:30:47;93192.16;;;8.54;99.19
11682;BME280;5897;42.640;23.310;2023-11-22T00:33:14;93071.59;;;7.87;98.93
11682;BME280;5897;42.640;23.310;2023-11-22T00:35:43;93203.25;;;8.31;99.67
11682;BME280;5897;42.640;23.310;2023-11-22T00:38:10;93179.47;;;8.42;99.50
11682;BME280;5897;42.640;23.310;2023-11-22T00:40:37;93195.75;;;8.51;99.30
11682;BME280;5897;42.640;23.310;2023-11-22T00:43:04;93178.38;;;8.40;99.33
11682;BME280;5897;42.640;23.310;2023-11-22T00:45:30;93200.69;;;8.65;98.12
11682;BME280;5897;42.640;23.310;2023-11-22T00:48:00;93192.50;;;8.56;98.56
11682;BME280;5897;42.640;23.310;2023-11-22T00:50:27;93181.81;;;8.53;97.50
11682;BME280;5897;42.640;23.310;2023-11-22T00:52:54;93193.25;;;8.57;97.89
11682;BME280;5897;42.640;23.310;2023-11-22T00:55:21;93182.91;;;8.68;96.45
11682;BME280;5897;42.640;23.310;2023-11-22T00:57:47;93165.47;;;8.60;97.35
11682;BME280;5897;42.640;23.310;2023-11-22T01:00:15;93135.00;;;8.25;97.39
11682;BME280;5897;42.640;23.310;2023-11-22T01:02:41;93183.47;;;8.50;97.49
11682;BME280;5897;42.640;23.310;2023-11-22T01:05:10;93188.75;;;8.54;97.82
11682;BME280;5897;42.640;23.310;2023-11-22T01:07:38;93180.78;;;8.50;97.81
11682;BME280;5897;42.640;23.310;2023-11-22T01:10:06;93175.06;;;8.48;97.43
11682;BME280;5897;42.640;23.310;2023-11-22T01:12:33;93179.59;;;8.51;97.23
11682;BME280;5897;42.640;23.310;2023-11-22T01:15:00;93159.88;;;8.54;97.23
11682;BME280;5897;42.640;23.310;2023-11-22T01:17:26;93184.31;;;8.72;96.98
11682;BME280;5897;42.640;23.310;2023-11-22T01:19:53;93109.81;;;8.44;96.10
11682;BME280;5897;42.640;23.310;2023-11-22T01:22:21;93158.91;;;8.73;96.95
11682;BME280;5897;42.640;23.310;2023-11-22T01:24:48;93148.69;;;8.68;96.98
11682;BME280;5897;42.640;23.310;2023-11-22T01:27:15;93122.41;;;8.60;96.94
11682;BME280;5897;42.640;23.310;2023-11-22T01:29:41;93163.16;;;8.96;95.94
11682;BME280;5897;42.640;23.310;2023-11-22T01:32:08;93140.78;;;8.74;96.54
11682;BME280;5897;42.640;23.310;2023-11-22T01:34:35;93157.91;;;8.67;98.60
11682;BME280;5897;42.640;23.310;2023-11-22T01:37:02;93148.22;;;8.70;98.54
11682;BME280;5897;42.640;23.310;2023-11-22T01:39:31;93144.69;;;8.73;98.79
11682;BME280;5897;42.640;23.310;2023-11-22T01:41:57;93144.44;;;8.80;98.51
11682;BME280;5897;42.640;23.310;2023-11-22T01:44:24;93126.25;;;8.71;98.44
11682;BME280;5897;42.640;23.310;2023-11-22T01:46:52;93128.84;;;8.75;98.30
11682;BME280;5897;42.640;23.310;2023-11-22T01:49:20;93127.34;;;8.61;98.51
11682;BME280;5897;42.640;23.310;2023-11-22T01:51:47;93124.13;;;8.54;99.26
11682;BME280;5897;42.640;23.310;2023-11-22T01:54:14;93124.66;;;8.36;99.96
11682;BME280;5897;42.640;23.310;2023-11-22T01:56:44;93140.47;;;8.47;99.57
11682;BME280;5897;42.640;23.310;2023-11-22T01:59:11;93132.63;;;8.52;99.48
11682;BME280;5897;42.640;23.310;2023-11-22T02:01:40;93139.72;;;8.59;99.83
11682;BME280;5897;42.640;23.310;2023-11-22T02:04:08;93120.38;;;8.51;99.56
11682;BME280;5897;42.640;23.310;2023-11-22T02:06:35;93134.44;;;8.55;99.74
11682;BME280;5897;42.640;23.310;2023-11-22T02:09:02;93128.53;;;8.60;98.87
11682;BME280;5897;42.640;23.310;2023-11-22T02:11:29;93133.38;;;8.53;99.35
11682;BME280;5897;42.640;23.310;2023-11-22T02:13:57;93125.94;;;8.57;99.60
11682;BME280;5897;42.640;23.310;2023-11-22T02:16:23;93111.84;;;8.53;100.00
11682;BME280;5897;42.640;23.310;2023-11-22T02:18:49;93114.97;;;8.51;100.00
11682;BME280;5897;42.640;23.310;2023-11-22T02:21:16;93106.06;;;8.42;100.00
11682;BME280;5897;42.640;23.310;2023-11-22T02:23:45;93118.00;;;8.53;100.00
11682;BME280;5897;42.640;23.310;2023-11-22T02:26:12;93128.22;;;8.58;100.00
11682;BME280;5897;42.640;23.310;2023-11-22T02:28:41;93131.03;;;8.55;100.00
11682;BME280;5897;42.640;23.310;2023-11-22T02:31:08;93131.75;;;8.55;99.89
11682;BME280;5897;42.640;23.310;2023-11-22T02:33:35;93118.88;;;8.50;100.00
11682;BME280;5897;42.640;23.310;2023-11-22T02:36:02;93132.84;;;8.70;99.23
11682;BME280;5897;42.640;23.310;2023-11-22T02:38:29;93139.41;;;8.82;96.96
11682;BME280;5897;42.640;23.310;2023-11-22T02:40:57;93132.41;;;8.59;97.87
11682;BME280;5897;42.640;23.310;2023-11-22T02:43:24;93119.19;;;8.40;99.56
11682;BME280;5897;42.640;23.310;2023-11-22T02:45:51;93095.19;;;8.20;100.00
11682;BME280;5897;42.640;23.310;2023-11-22T02:48:18;93120.69;;;8.53;98.98
11682;BME280;5897;42.640;23.310;2023-11-22T02:50:45;93128.34;;;8.42;100.00
11682;BME280;5897;42.640;23.310;2023-11-22T02:53:12;93094.00;;;8.21;100.00
11682;BME280;5897;42.640;23.310;2023-11-22T02:55:39;93121.34;;;8.45;100.00
11682;BME280;5897;42.640;23.310;2023-11-22T02:58:07;93124.78;;;8.45;100.00
11682;BME280;5897;42.640;23.310;2023-11-22T03:00:34;93117.47;;;8.21;100.00
11682;BME280;5897;42.640;23.310;2023-11-22T03:03:01;93121.44;;;8.41;100.00
11682;BME280;5897;42.640;23.310;2023-11-22T03:05:29;93127.47;;;8.45;100.00
11682;BME280;5897;42.640;23.310;2023-11-22T03:07:55;93130.25;;;8.54;100.00
11682;BME280;5897;42.640;23.310;2023-11-22T03:10:23;93081.00;;;8.20;100.00
11682;BME280;5897;42.640;23.310;2023-11-22T03:12:50;93129.41;;;8.57;99.77
11682;BME280;5897;42.640;23.310;2023-11-22T03:15:18;93132.72;;;8.61;98.92
11682;BME280;5897;42.640;23.310;2023-11-22T03:17:45;93140.13;;;8.82;100.00
11682;BME280;5897;42.640;23.310;2023-11-22T03:20:13;93140.06;;;8.73;100.00
11682;BME280;5897;42.640;23.310;2023-11-22T03:22:41;93117.88;;;8.57;100.00
11682;BME280;5897;42.640;23.310;2023-11-22T03:25:26;93146.28;;;8.83;100.00
11682;BME280;5897;42.640;23.310;2023-11-22T03:27:54;93146.06;;;8.90;100.00
11682;BME280;5897;42.640;23.310;2023-11-22T03:30:22;93144.34;;;8.83;99.88
11682;BME280;5897;42.640;23.310;2023-11-22T03:32:49;93139.28;;;8.85;100.00
11682;BME280;5897;42.640;23.310;2023-11-22T03:35:16;93129.91;;;8.90;99.85
11682;BME280;5897;42.640;23.310;2023-11-22T03:37:43;93126.88;;;8.88;99.08
11682;BME280;5897;42.640;23.310;2023-11-22T03:40:10;93139.59;;;8.87;99.03
11682;BME280;5897;42.640;23.310;2023-11-22T03:42:39;93139.72;;;8.71;99.38
11682;BME280;5897;42.640;23.310;2023-11-22T03:45:07;93136.94;;;8.62;100.00
11682;BME280;5897;42.640;23.310;2023-11-22T03:47:35;93118.63;;;8.57;100.00
11682;BME280;5897;42.640;23.310;2023-11-22T03:50:04;93120.56;;;8.69;100.00
11682;BME280;5897;42.640;23.310;2023-11-22T03:52:31;93130.25;;;8.67;100.00
11682;BME280;5897;42.640;23.310;2023-11-22T03:54:57;93130.47;;;8.60;100.00
11682;BME280;5897;42.640;23.310;2023-11-22T03:57:24;93125.41;;;8.62;100.00
11682;BME280;5897;42.640;23.310;2023-11-22T03:59:51;93129.19;;;8.64;100.00
11682;BME280;5897;42.640;23.310;2023-11-22T04:02:18;93129.19;;;8.64;100.00
11682;BME280;5897;42.640;23.310;2023-11-22T04:04:46;93132.72;;;8.61;100.00
11682;BME280;5897;42.640;23.310;2023-11-22T04:07:13;93137.69;;;8.75;100.00
11682;BME280;5897;42.640;23.310;2023-11-22T04:09:39;93147.06;;;8.58;100.00
11682;BME280;5897;42.640;23.310;2023-11-22T04:12:07;93150.81;;;8.48;100.00
11682;BME280;5897;42.640;23.310;2023-11-22T04:14:33;93157.41;;;8.60;99.45
11682;BME280;5897;42.640;23.310;2023-11-22T04:17:00;93153.41;;;8.64;98.35
11682;BME280;5897;42.640;23.310;2023-11-22T04:19:27;93157.06;;;8.58;99.68
11682;BME280;5897;42.640;23.310;2023-11-22T04:21:55;93154.81;;;8.56;100.00
11682;BME280;5897;42.640;23.310;2023-11-22T04:24:22;93170.72;;;8.76;98.95
11682;BME280;5897;42.640;23.310;2023-11-22T04:26:48;93083.75;;;8.16;99.09
11682;BME280;5897;42.640;23.310;2023-11-22T04:29:15;93163.63;;;8.69;99.31
11682;BME280;5897;42.640;23.310;2023-11-22T04:31:42;93143.94;;;8.35;100.00
11682;BME280;5897;42.640;23.310;2023-11-22T04:34:09;93183.66;;;8.43;100.00
11682;BME280;5897;42.640;23.310;2023-11-22T04:36:36;93181.81;;;8.53;100.00
11682;BME280;5897;42.640;23.310;2023-11-22T04:39:05;93180.03;;;8.62;100.00
11682;BME280;5897;42.640;23.310;2023-11-22T04:41:33;93163.63;;;8.69;100.00
11682;BME280;5897;42.640;23.310;2023-11-22T04:44:00;93178.38;;;8.77;100.00
11682;BME280;5897;42.640;23.310;2023-11-22T04:46:28;93187.97;;;8.78;100.00
11682;BME280;5897;42.640;23.310;2023-11-22T04:48:54;93166.88;;;8.64;100.00
11682;BME280;5897;42.640;23.310;2023-11-22T04:51:21;93190.66;;;8.78;100.00
11682;BME280;5897;42.640;23.310;2023-11-22T04:53:49;93198.66;;;8.82;100.00
11682;BME280;5897;42.640;23.310;2023-11-22T04:56:18;93190.97;;;8.55;100.00
11682;BME280;5897;42.640;23.310;2023-11-22T04:58:44;93207.47;;;8.57;100.00
11682;BME280;5897;42.640;23.310;2023-11-22T05:01:11;93233.84;;;8.75;100.00
11682;BME280;5897;42.640;23.310;2023-11-22T05:03:38;93237.72;;;8.61;100.00
11682;BME280;5897;42.640;23.310;2023-11-22T05:06:05;93225.13;;;8.58;100.00
11682;BME280;5897;42.640;23.310;2023-11-22T05:08:32;93230.72;;;8.51;100.00
11682;BME280;5897;42.640;23.310;2023-11-22T05:10:59;93238.38;;;8.65;100.00
11682;BME280;5897;42.640;23.310;2023-11-22T05:13:28;93242.56;;;8.66;100.00
11682;BME280;5897;42.640;23.310;2023-11-22T05:15:55;93159.16;;;8.00;100.00
11682;BME280;5897;42.640;23.310;2023-11-22T05:18:21;93235.66;;;8.40;100.00
11682;BME280;5897;42.640;23.310;2023-11-22T05:20:48;93244.38;;;8.44;100.00
11682;BME280;5897;42.640;23.310;2023-11-22T05:23:15;93247.41;;;8.46;100.00
11682;BME280;5897;42.640;23.310;2023-11-22T05:25:42;93256.16;;;8.50;100.00
11682;BME280;5897;42.640;23.310;2023-11-22T05:28:09;93247.63;;;8.39;100.00
11682;BME280;5897;42.640;23.310;2023-11-22T05:30:37;93258.72;;;8.54;100.00
11682;BME280;5897;42.640;23.310;2023-11-22T05:33:04;93261.19;;;8.48;100.00
11682;BME280;5897;42.640;23.310;2023-11-22T05:35:31;93270.59;;;8.56;100.00
11682;BME280;5897;42.640;23.310;2023-11-22T05:37:58;93265.19;;;8.56;100.00
11682;BME280;5897;42.640;23.310;2023-11-22T05:40:25;93272.56;;;8.40;100.00
11682;BME280;5897;42.640;23.310;2023-11-22T05:42:52;93285.00;;;8.50;100.00
11682;BME280;5897;42.640;23.310;2023-11-22T05:45:18;93271.91;;;8.36;100.00
11682;BME280;5897;42.640;23.310;2023-11-22T05:47:47;93261.81;;;8.40;100.00
11682;BME280;5897;42.640;23.310;2023-11-22T05:50:14;93274.09;;;8.41;100.00
11682;BME280;5897;42.640;23.310;2023-11-22T05:52:40;93281.66;;;8.58;100.00
11682;BME280;5897;42.640;23.310;2023-11-22T05:55:08;93286.91;;;8.49;100.00
11682;BME280;5897;42.640;23.310;2023-11-22T05:57:35;93290.38;;;8.50;100.00
11682;BME280;5897;42.640;23.310;2023-11-22T06:00:02;93305.00;;;8.49;100.00
11682;BME280;5897;42.640;23.310;2023-11-22T06:02:29;93305.34;;;8.51;100.00
11682;BME280;5897;42.640;23.310;2023-11-22T06:04:57;93301.91;;;8.50;100.00
11682;BME280;5897;42.640;23.310;2023-11-22T06:07:24;93313.09;;;8.61;100.00
11682;BME280;5897;42.640;23.310;2023-11-22T06:09:50;93314.63;;;8.62;100.00
11682;BME280;5897;42.640;23.310;2023-11-22T06:12:17;93291.09;;;8.38;100.00
11682;BME280;5897;42.640;23.310;2023-11-22T06:14:45;93317.22;;;8.66;100.00
11682;BME280;5897;42.640;23.310;2023-11-22T06:17:12;93325.41;;;8.75;100.00
11682;BME280;5897;42.640;23.310;2023-11-22T06:19:39;93330.72;;;8.91;100.00
11682;BME280;5897;42.640;23.310;2023-11-22T06:22:08;93322.13;;;9.08;100.00
11682;BME280;5897;42.640;23.310;2023-11-22T06:24:34;93336.03;;;9.19;100.00
11682;BME280;5897;42.640;23.310;2023-11-22T06:27:01;93318.88;;;9.26;100.00
11682;BME280;5897;42.640;23.310;2023-11-22T06:29:28;93335.88;;;9.60;100.00
11682;BME280;5897;42.640;23.310;2023-11-22T06:31:55;93345.66;;;9.79;100.00
11682;BME280;5897;42.640;23.310;2023-11-22T06:34:22;93334.34;;;9.72;100.00
11682;BME280;5897;42.640;23.310;2023-11-22T06:36:49;93334.38;;;9.47;100.00
11682;BME280;5897;42.640;23.310;2023-11-22T06:39:16;93343.56;;;9.37;100.00
11682;BME280;5897;42.640;23.310;2023-11-22T06:41:43;93329.22;;;9.15;100.00
11682;BME280;5897;42.640;23.310;2023-11-22T06:44:09;93356.28;;;9.36;100.00
11682;BME280;5897;42.640;23.310;2023-11-22T06:46:36;93364.38;;;9.36;100.00
11682;BME280;5897;42.640;23.310;2023-11-22T06:49:03;93360.28;;;9.44;100.00
11682;BME280;5897;42.640;23.310;2023-11-22T06:51:30;93365.22;;;9.33;100.00
11682;BME280;5897;42.640;23.310;2023-11-22T06:53:57;93364.91;;;9.31;100.00
11682;BME280;5897;42.640;23.310;2023-11-22T06:56:25;93371.47;;;9.55;100.00
11682;BME280;5897;42.640;23.310;2023-11-22T06:58:52;93363.63;;;9.48;100.00
11682;BME280;5897;42.640;23.310;2023-11-22T07:01:22;93372.47;;;9.36;100.00
11682;BME280;5897;42.640;23.310;2023-11-22T07:03:51;93373.09;;;9.40;100.00
11682;BME280;5897;42.640;23.310;2023-11-22T07:06:18;93372.91;;;9.47;100.00
11682;BME280;5897;42.640;23.310;2023-11-22T07:08:48;93373.22;;;9.49;100.00
11682;BME280;5897;42.640;23.310;2023-11-22T07:11:21;93361.56;;;9.40;100.00
11682;BME280;5897;42.640;23.310;2023-11-22T07:13:50;93382.50;;;9.48;100.00
11682;BME280;5897;42.640;23.310;2023-11-22T07:16:17;93382.69;;;9.54;100.00
11682;BME280;5897;42.640;23.310;2023-11-22T07:18:44;93389.16;;;9.56;100.00
11682;BME280;5897;42.640;23.310;2023-11-22T07:21:11;93378.19;;;9.51;100.00
11682;BME280;5897;42.640;23.310;2023-11-22T07:23:38;93387.44;;;9.62;100.00
11682;BME280;5897;42.640;23.310;2023-11-22T07:26:05;93380.00;;;9.66;100.00
11682;BME280;5897;42.640;23.310;2023-11-22T07:28:32;93383.44;;;9.67;100.00
11682;BME280;5897;42.640;23.310;2023-11-22T07:31:02;93386.03;;;9.70;100.00
11682;BME280;5897;42.640;23.310;2023-11-22T07:33:31;93397.34;;;9.78;100.00
11682;BME280;5897;42.640;23.310;2023-11-22T07:35:58;93398.22;;;9.75;100.00
11682;BME280;5897;42.640;23.310;2023-11-22T07:38:25;93394.34;;;9.76;100.00
11682;BME280;5897;42.640;23.310;2023-11-22T07:40:52;93398.97;;;9.75;100.00
11682;BME280;5897;42.640;23.310;2023-11-22T07:43:19;93398.34;;;9.71;100.00
11682;BME280;5897;42.640;23.310;2023-11-22T07:45:46;93401.66;;;9.75;100.00
11682;BME280;5897;42.640;23.310;2023-11-22T07:48:15;93399.84;;;9.72;100.00
11682;BME280;5897;42.640;23.310;2023-11-22T07:50:42;93398.97;;;9.75;100.00
11682;BME280;5897;42.640;23.310;2023-11-22T07:53:10;93385.63;;;9.59;100.00
11682;BME280;5897;42.640;23.310;2023-11-22T07:55:37;93405.53;;;9.87;100.00
11682;BME280;5897;42.640;23.310;2023-11-22T07:58:04;93402.72;;;9.78;100.00
11682;BME280;5897;42.640;23.310;2023-11-22T08:00:32;93404.03;;;9.86;100.00
11682;BME280;5897;42.640;23.310;2023-11-22T08:03:00;93398.84;;;9.91;100.00
11682;BME280;5897;42.640;23.310;2023-11-22T08:05:29;93406.72;;;9.98;100.00
11682;BME280;5897;42.640;23.310;2023-11-22T08:08:00;93404.03;;;9.98;100.00
11682;BME280;5897;42.640;23.310;2023-11-22T08:10:27;93392.28;;;9.80;100.00
11682;BME280;5897;42.640;23.310;2023-11-22T08:12:53;93409.84;;;9.97;100.00
11682;BME280;5897;42.640;23.310;2023-11-22T08:15:20;93411.78;;;9.96;100.00
11682;BME280;5897;42.640;23.310;2023-11-22T08:17:47;93416.22;;;9.90;100.00
11682;BME280;5897;42.640;23.310;2023-11-22T08:20:14;93419.88;;;9.96;100.00
11682;BME280;5897;42.640;23.310;2023-11-22T08:22:45;93423.78;;;9.95;100.00
11682;BME280;5897;42.640;23.310;2023-11-22T08:25:15;93419.75;;;10.00;100.00
11682;BME280;5897;42.640;23.310;2023-11-22T08:27:41;93418.06;;;9.93;100.00
11682;BME280;5897;42.640;23.310;2023-11-22T08:30:09;93422.16;;;9.98;100.00
11682;BME280;5897;42.640;23.310;2023-11-22T08:32:39;93416.22;;;9.90;100.00
11682;BME280;5897;42.640;23.310;2023-11-22T08:35:08;93432.31;;;10.06;100.00
11682;BME280;5897;42.640;23.310;2023-11-22T08:37:35;93436.28;;;10.14;100.00
11682;BME280;5897;42.640;23.310;2023-11-22T08:40:06;93429.72;;;10.15;100.00
11682;BME280;5897;42.640;23.310;2023-11-22T08:42:33;93423.97;;;10.13;100.00
11682;BME280;5897;42.640;23.310;2023-11-22T08:45:01;93445.91;;;10.15;100.00
11682;BME280;5897;42.640;23.310;2023-11-22T08:47:28;93431.84;;;10.20;100.00
11682;BME280;5897;42.640;23.310;2023-11-22T08:49:55;93439.28;;;10.29;100.00
11682;BME280;5897;42.640;23.310;2023-11-22T08:52:23;93430.19;;;10.35;100.00
11682;BME280;5897;42.640;23.310;2023-11-22T08:54:50;93416.50;;;10.30;100.00
11682;BME280;5897;42.640;23.310;2023-11-22T08:57:18;93432.63;;;10.55;100.00
11682;BME280;5897;42.640;23.310;2023-11-22T08:59:45;93428.00;;;10.55;100.00
11682;BME280;5897;42.640;23.310;2023-11-22T09:02:13;93442.84;;;10.72;100.00
11682;BME280;5897;42.640;23.310;2023-11-22T09:04:40;93434.53;;;10.67;100.00
11682;BME280;5897;42.640;23.310;2023-11-22T09:07:08;93435.91;;;10.71;100.00
11682;BME280;5897;42.640;23.310;2023-11-22T09:09:35;93448.81;;;10.89;100.00
11682;BME280;5897;42.640;23.310;2023-11-22T09:12:03;93453.53;;;10.97;100.00
11682;BME280;5897;42.640;23.310;2023-11-22T09:14:31;93443.28;;;10.92;100.00
11682;BME280;5897;42.640;23.310;2023-11-22T09:16:58;93463.16;;;10.98;100.00
11682;BME280;5897;42.640;23.310;2023-11-22T09:19:26;93463.44;;;11.00;100.00
11682;BME280;5897;42.640;23.310;2023-11-22T09:21:52;93467.69;;;11.01;100.00
11682;BME280;5897;42.640;23.310;2023-11-22T09:24:19;93455.94;;;10.95;100.00
11682;BME280;5897;42.640;23.310;2023-11-22T09:26:45;93476.91;;;10.91;100.00
11682;BME280;5897;42.640;23.310;2023-11-22T09:29:12;93474.75;;;10.86;100.00
11682;BME280;5897;42.640;23.310;2023-11-22T09:31:41;93460.09;;;10.75;100.00
11682;BME280;5897;42.640;23.310;2023-11-22T09:34:08;93469.78;;;10.85;100.00
11682;BME280;5897;42.640;23.310;2023-11-22T09:36:36;93463.44;;;10.79;100.00
11682;BME280;5897;42.640;23.310;2023-11-22T09:39:04;93467.03;;;10.76;100.00
11682;BME280;5897;42.640;23.310;2023-11-22T09:41:34;93466.81;;;10.70;100.00
11682;BME280;5897;42.640;23.310;2023-11-22T09:44:01;93472.75;;;10.78;100.00
11682;BME280;5897;42.640;23.310;2023-11-22T09:46:29;93478.66;;;10.85;100.00
11682;BME280;5897;42.640;23.310;2023-11-22T09:49:00;93478.53;;;10.89;100.00
11682;BME280;5897;42.640;23.310;2023-11-22T09:51:32;93466.22;;;10.88;100.00
11682;BME280;5897;42.640;23.310;2023-11-22T09:54:04;93467.78;;;10.76;100.00
11682;BME280;5897;42.640;23.310;2023-11-22T09:56:33;93484.88;;;10.95;100.00
11682;BME280;5897;42.640;23.310;2023-11-22T09:59:03;93462.72;;;11.00;100.00
11682;BME280;5897;42.640;23.310;2023-11-22T10:01:31;93454.72;;;10.96;100.00
11682;BME280;5897;42.640;23.310;2023-11-22T10:04:04;93460.66;;;11.04;100.00
11682;BME280;5897;42.640;23.310;2023-11-22T10:06:31;93459.88;;;11.03;100.00
11682;BME280;5897;42.640;23.310;2023-11-22T10:08:58;93462.59;;;11.03;100.00
11682;BME280;5897;42.640;23.310;2023-11-22T10:11:26;93460.88;;;10.97;100.00
11682;BME280;5897;42.640;23.310;2023-11-22T10:13:54;93457.47;;;11.05;100.00
11682;BME280;5897;42.640;23.310;2023-11-22T10:16:22;93455.72;;;11.11;100.00
11682;BME280;5897;42.640;23.310;2023-11-22T10:18:49;93466.22;;;11.09;100.00
11682;BME280;5897;42.640;23.310;2023-11-22T10:21:21;93464.22;;;11.01;100.00
11682;BME280;5897;42.640;23.310;2023-11-22T10:23:49;93472.16;;;11.17;100.00
11682;BME280;5897;42.640;23.310;2023-11-22T10:26:17;93465.09;;;11.19;100.00
11682;BME280;5897;42.640;23.310;2023-11-22T10:28:44;93460.31;;;11.23;100.00
11682;BME280;5897;42.640;23.310;2023-11-22T10:31:11;93465.47;;;11.30;100.00
11682;BME280;5897;42.640;23.310;2023-11-22T10:33:41;93443.66;;;11.25;100.00
11682;BME280;5897;42.640;23.310;2023-11-22T10:36:09;93450.09;;;11.18;100.00
11682;BME280;5897;42.640;23.310;2023-11-22T10:38:39;93456.44;;;11.24;100.00
11682;BME280;5897;42.640;23.310;2023-11-22T10:41:07;93460.44;;;11.41;100.00
11682;BME280;5897;42.640;23.310;2023-11-22T10:43:34;93466.31;;;11.48;100.00
11682;BME280;5897;42.640;23.310;2023-11-22T10:46:02;93474.63;;;11.54;100.00
11682;BME280;5897;42.640;23.310;2023-11-22T10:48:30;93464.50;;;11.67;100.00
11682;BME280;5897;42.640;23.310;2023-11-22T10:51:00;93470.59;;;11.80;100.00
11682;BME280;5897;42.640;23.310;2023-11-22T10:53:31;93472.09;;;11.81;100.00
11682;BME280;5897;42.640;23.310;2023-11-22T10:56:04;93467.19;;;11.89;100.00
11682;BME280;5897;42.640;23.310;2023-11-22T10:58:42;93458.25;;;11.79;99.97
11682;BME280;5897;42.640;23.310;2023-11-22T11:01:12;93473.31;;;11.89;100.00
11682;BME280;5897;42.640;23.310;2023-11-22T11:03:41;93462.34;;;11.93;98.56
11682;BME280;5897;42.640;23.310;2023-11-22T11:06:15;93460.41;;;11.93;98.92
11682;BME280;5897;42.640;23.310;2023-11-22T11:08:47;93467.63;;;11.96;99.80
11682;BME280;5897;42.640;23.310;2023-11-22T11:11:17;93473.97;;;11.93;100.00
11682;BME280;5897;42.640;23.310;2023-11-22T11:13:45;93480.44;;;11.96;100.00
11682;BME280;5897;42.640;23.310;2023-11-22T11:16:13;93475.16;;;11.92;100.00
11682;BME280;5897;42.640;23.310;2023-11-22T11:18:41;93478.75;;;11.89;100.00
11682;BME280;5897;42.640;23.310;2023-11-22T11:21:08;93468.19;;;11.82;100.00
11682;BME280;5897;42.640;23.310;2023-11-22T11:23:39;93471.06;;;11.88;99.88
11682;BME280;5897;42.640;23.310;2023-11-22T11:26:14;93474.53;;;11.88;99.73
11682;BME280;5897;42.640;23.310;2023-11-22T11:28:44;93470.47;;;11.93;99.38
11682;BME280;5897;42.640;23.310;2023-11-22T11:31:11;93475.81;;;12.05;99.60
11682;BME280;5897;42.640;23.310;2023-11-22T11:33:53;93466.03;;;12.07;99.85
11682;BME280;5897;42.640;23.310;2023-11-22T11:36:23;93467.88;;;12.19;99.41
11682;BME280;5897;42.640;23.310;2023-11-22T11:38:51;93458.22;;;12.09;97.73
11682;BME280;5897;42.640;23.310;2023-11-22T11:41:25;93475.25;;;12.19;96.04
11682;BME280;5897;42.640;23.310;2023-11-22T11:43:55;93468.59;;;12.11;95.20
11682;BME280;5897;42.640;23.310;2023-11-22T11:46:22;93469.66;;;12.13;96.11
11682;BME280;5897;42.640;23.310;2023-11-22T11:48:51;93460.97;;;12.18;96.11
11682;BME280;5897;42.640;23.310;2023-11-22T11:51:20;93458.69;;;12.17;96.39
11682;BME280;5897;42.640;23.310;2023-11-22T11:53:48;93454.34;;;12.19;97.50
11682;BME280;5897;42.640;23.310;2023-11-22T11:56:15;93472.28;;;12.26;98.95
11682;BME280;5897;42.640;23.310;2023-11-22T11:58:43;93468.34;;;12.27;99.34
11682;BME280;5897;42.640;23.310;2023-11-22T12:01:13;93475.56;;;12.21;99.16
11682;BME280;5897;42.640;23.310;2023-11-22T12:03:40;93464.41;;;12.19;99.27
11682;BME280;5897;42.640;23.310;2023-11-22T12:06:07;93470.00;;;12.24;98.92
11682;BME280;5897;42.640;23.310;2023-11-22T12:08:34;93474.84;;;12.29;98.74
11682;BME280;5897;42.640;23.310;2023-11-22T12:11:02;93493.94;;;12.26;97.51
11682;BME280;5897;42.640;23.310;2023-11-22T12:13:30;93476.78;;;12.20;97.58
11682;BME280;5897;42.640;23.310;2023-11-22T12:15:58;93496.66;;;12.26;97.72
11682;BME280;5897;42.640;23.310;2023-11-22T12:18:26;93511.97;;;12.20;98.09
11682;BME280;5897;42.640;23.310;2023-11-22T12:20:56;93511.06;;;12.23;98.00
11682;BME280;5897;42.640;23.310;2023-11-22T12:23:24;93518.41;;;12.13;98.35
11682;BME280;5897;42.640;23.310;2023-11-22T12:25:56;93508.44;;;12.10;98.61
11682;BME280;5897;42.640;23.310;2023-11-22T12:28:24;93500.47;;;12.07;99.21
11682;BME280;5897;42.640;23.310;2023-11-22T12:30:50;93507.84;;;12.07;99.42
11682;BME280;5897;42.640;23.310;2023-11-22T12:33:18;93499.53;;;12.01;100.00
11682;BME280;5897;42.640;23.310;2023-11-22T12:35:47;93480.81;;;11.85;100.00
11682;BME280;5897;42.640;23.310;2023-11-22T12:38:14;93501.94;;;11.99;100.00
11682;BME280;5897;42.640;23.310;2023-11-22T12:40:45;93506.50;;;12.11;100.00
11682;BME280;5897;42.640;23.310;2023-11-22T12:43:13;93504.72;;;12.17;100.00
11682;BME280;5897;42.640;23.310;2023-11-22T12:45:40;93507.28;;;12.12;100.00
11682;BME280;5897;42.640;23.310;2023-11-22T12:48:22;93525.50;;;12.20;100.00
11682;BME280;5897;42.640;23.310;2023-11-22T12:50:51;93528.66;;;12.18;100.00
11682;BME280;5897;42.640;23.310;2023-11-22T12:53:19;93523.53;;;12.20;100.00
11682;BME280;5897;42.640;23.310;2023-11-22T12:55:48;93536.94;;;12.24;100.00
11682;BME280;5897;42.640;23.310;2023-11-22T12:58:15;93531.66;;;12.20;100.00
11682;BME280;5897;42.640;23.310;2023-11-22T13:00:44;93532.66;;;12.05;100.00
11682;BME280;5897;42.640;23.310;2023-11-22T13:03:12;93543.50;;;12.14;100.00